createdAt,value
2018-03-03T00:01:46.314Z,57.59
2018-03-03T00:04:13.931Z,57.89
2018-03-03T00:06:41.504Z,57.89
2018-03-03T00:09:09.108Z,57.89
2018-03-03T00:11:36.717Z,57.86
2018-03-03T00:14:04.292Z,57.97
2018-03-03T00:16:32.192Z,57.96
2018-03-03T00:18:59.783Z,58.13
2018-03-03T00:21:27.623Z,58.21
2018-03-03T00:23:55.248Z,58.33
2018-03-03T00:26:22.882Z,58.22
2018-03-03T00:28:50.505Z,58.17
2018-03-03T00:31:18.098Z,58.21
2018-03-03T00:33:45.711Z,58.49
2018-03-03T00:36:13.362Z,58.38
2018-03-03T00:38:40.932Z,58.38
2018-03-03T00:41:08.548Z,58.60
2018-03-03T00:43:36.247Z,58.90
2018-03-03T00:46:04.242Z,58.79
2018-03-03T00:48:31.883Z,58.67
2018-03-03T00:50:59.492Z,58.62
2018-03-03T00:53:27.326Z,58.86
2018-03-03T00:55:54.925Z,58.92
2018-03-03T00:58:22.555Z,59.01
2018-03-03T01:00:50.339Z,59.19
2018-03-03T01:03:17.924Z,59.02
2018-03-03T01:05:45.527Z,58.97
2018-03-03T01:08:13.132Z,59.29
2018-03-03T01:10:40.791Z,59.00
2018-03-03T01:13:08.362Z,59.33
2018-03-03T01:15:35.966Z,59.68
2018-03-03T01:18:03.639Z,59.55
2018-03-03T01:20:31.531Z,59.86
2018-03-03T01:22:59.155Z,59.74
2018-03-03T01:25:26.770Z,59.96
2018-03-03T01:27:54.598Z,59.70
2018-03-03T01:30:22.258Z,59.93
2018-03-03T01:32:49.823Z,59.77
2018-03-03T01:35:17.438Z,59.84
2018-03-03T01:37:44.998Z,59.96
2018-03-03T01:40:12.916Z,59.84
2018-03-03T01:42:40.556Z,59.89
2018-03-03T01:45:08.137Z,60.06
2018-03-03T01:47:35.832Z,60.21
2018-03-03T01:50:03.446Z,59.92
2018-03-03T01:52:31.168Z,60.29
2018-03-03T01:54:58.749Z,60.34
2018-03-03T01:57:26.381Z,60.29
2018-03-03T01:59:54.087Z,60.19
2018-03-03T02:02:21.924Z,60.35
2018-03-03T02:04:49.588Z,60.35
2018-03-03T02:07:17.161Z,60.45
2018-03-03T02:09:44.731Z,60.38
2018-03-03T02:12:12.349Z,60.40
2018-03-03T02:14:40.290Z,60.66
2018-03-03T02:17:07.949Z,60.54
2018-03-03T02:19:35.577Z,60.77
2018-03-03T02:22:03.242Z,60.65
2018-03-03T02:24:30.845Z,60.86
2018-03-03T02:26:58.513Z,60.61
2018-03-03T02:29:26.285Z,60.65
2018-03-03T02:31:53.893Z,60.75
2018-03-03T02:34:21.503Z,60.82
2018-03-03T02:36:49.092Z,60.70
2018-03-03T02:39:17.005Z,60.84
2018-03-03T02:41:44.643Z,60.96
2018-03-03T02:44:12.653Z,61.08
2018-03-03T02:46:40.213Z,61.06
2018-03-03T02:49:07.922Z,61.13
2018-03-03T02:51:35.674Z,61.42
2018-03-03T02:54:03.564Z,61.25
2018-03-03T02:56:31.194Z,61.30
2018-03-03T02:58:59.234Z,61.35
2018-03-03T03:01:26.804Z,61.65
2018-03-03T03:03:54.413Z,61.56
2018-03-03T03:06:22.035Z,61.52
2018-03-03T03:08:49.681Z,61.75
2018-03-03T03:11:17.494Z,61.94
2018-03-03T03:13:45.088Z,61.85
2018-03-03T03:16:12.682Z,62.01
2018-03-03T03:18:40.304Z,61.98
2018-03-03T03:21:07.894Z,61.94
2018-03-03T03:23:35.505Z,61.94
2018-03-03T03:26:03.258Z,61.96
2018-03-03T03:28:30.938Z,62.13
2018-03-03T03:30:58.849Z,62.42
2018-03-03T03:33:26.461Z,62.11
2018-03-03T03:35:54.079Z,62.07
2018-03-03T03:38:21.717Z,62.00
2018-03-03T03:40:49.328Z,62.06
2018-03-03T03:43:16.981Z,62.34
2018-03-03T03:45:44.620Z,62.37
2018-03-03T03:48:12.272Z,62.37
2018-03-03T03:50:40.140Z,62.48
2018-03-03T03:53:07.776Z,62.31
2018-03-03T03:55:36.292Z,62.55
2018-03-03T03:58:03.874Z,62.52
2018-03-03T04:00:31.489Z,62.82
2018-03-03T04:02:59.090Z,62.82
2018-03-03T04:05:26.977Z,62.83
2018-03-03T04:07:54.606Z,62.74
2018-03-03T04:10:22.180Z,62.83
2018-03-03T04:12:49.756Z,62.81
2018-03-03T04:15:17.409Z,62.70
2018-03-03T04:17:44.991Z,62.87
2018-03-03T04:20:12.686Z,62.76
2018-03-03T04:22:40.675Z,62.82
2018-03-03T04:25:08.362Z,62.74
2018-03-03T04:27:35.998Z,62.43
2018-03-03T04:30:04.068Z,62.44
2018-03-03T04:32:31.970Z,62.87
2018-03-03T04:34:59.662Z,62.74
2018-03-03T04:37:27.377Z,62.58
2018-03-03T04:39:55.060Z,62.75
2018-03-03T04:42:22.673Z,62.75
2018-03-03T04:44:50.393Z,62.77
2018-03-03T04:47:17.995Z,62.87
2018-03-03T04:49:45.670Z,62.70
2018-03-03T04:52:13.429Z,62.85
2018-03-03T04:54:41.036Z,63.05
2018-03-03T04:57:08.873Z,62.93
2018-03-03T05:02:49.446Z,62.92
2018-03-03T05:05:32.808Z,62.84
2018-03-03T05:11:03.483Z,62.99
2018-03-03T05:13:46.884Z,63.10
2018-03-03T05:16:18.026Z,63.15
2018-03-03T05:18:51.094Z,62.93
2018-03-03T05:21:24.319Z,63.11
2018-03-03T05:23:57.436Z,63.20
2018-03-03T05:26:30.768Z,63.01
2018-03-03T05:32:21.083Z,63.01
2018-03-03T05:34:54.225Z,63.05
2018-03-03T05:40:46.742Z,63.48
2018-03-03T05:43:20.120Z,63.20
2018-03-03T05:49:11.472Z,63.46
2018-03-03T05:51:44.696Z,63.37
2018-03-03T05:54:18.077Z,63.33
2018-03-03T06:00:09.506Z,63.14
2018-03-03T06:02:37.777Z,63.43
2018-03-03T06:05:11.091Z,63.48
2018-03-03T06:07:44.403Z,63.34
2018-03-03T06:10:28.751Z,63.38
2018-03-03T06:12:56.392Z,63.29
2018-03-03T06:15:23.981Z,63.27
2018-03-03T06:17:51.554Z,63.32
2018-03-03T06:20:19.144Z,63.10
2018-03-03T06:22:46.776Z,63.22
2018-03-03T06:25:14.420Z,63.19
2018-03-03T06:27:42.025Z,63.21
2018-03-03T06:30:09.724Z,63.38
2018-03-03T06:32:37.317Z,63.39
2018-03-03T06:35:04.895Z,63.33
2018-03-03T06:37:32.522Z,63.32
2018-03-03T06:40:00.112Z,63.54
2018-03-03T06:42:27.676Z,63.20
2018-03-03T06:44:55.522Z,63.25
2018-03-03T06:47:23.104Z,63.05
2018-03-03T06:49:50.735Z,62.93
2018-03-03T06:52:18.319Z,63.10
2018-03-03T06:54:45.945Z,63.31
2018-03-03T06:57:13.548Z,63.14
2018-03-03T06:59:41.113Z,63.01
2018-03-03T07:02:08.956Z,63.04
2018-03-03T07:04:36.530Z,62.93
2018-03-03T07:07:04.100Z,62.62
2018-03-03T07:09:32.125Z,62.46
2018-03-03T07:11:59.719Z,62.30
2018-03-03T07:17:35.587Z,62.53
2018-03-03T07:20:03.249Z,62.36
2018-03-03T07:22:30.879Z,62.32
2018-03-03T07:24:58.857Z,62.34
2018-03-03T07:27:26.450Z,62.07
2018-03-03T07:29:54.020Z,62.08
2018-03-03T07:32:21.590Z,62.03
2018-03-03T07:34:49.217Z,61.92
2018-03-03T07:37:16.816Z,61.30
2018-03-03T07:39:44.369Z,61.38
2018-03-03T07:42:11.977Z,61.18
2018-03-03T07:44:39.539Z,61.28
2018-03-03T07:47:07.110Z,61.13
2018-03-03T07:49:34.762Z,60.84
2018-03-03T07:52:02.549Z,60.50
2018-03-03T07:54:30.105Z,60.33
2018-03-03T07:57:09.503Z,60.57
2018-03-03T07:59:37.089Z,60.30
2018-03-03T08:02:04.653Z,59.95
2018-03-03T08:04:32.317Z,60.06
2018-03-03T08:07:00.280Z,59.90
2018-03-03T08:09:27.869Z,59.66
2018-03-03T08:11:55.455Z,59.49
2018-03-03T08:14:23.012Z,59.33
2018-03-03T08:16:50.722Z,59.09
2018-03-03T08:19:18.302Z,59.05
2018-03-03T08:21:45.876Z,58.80
2018-03-03T08:24:13.485Z,58.91
2018-03-03T08:26:41.076Z,58.84
2018-03-03T08:29:08.897Z,58.51
2018-03-03T08:31:36.501Z,58.05
2018-03-03T08:34:04.217Z,58.17
2018-03-03T08:36:31.849Z,58.32
2018-03-03T08:38:59.401Z,57.90
2018-03-03T08:41:27.549Z,57.35
2018-03-03T08:43:55.191Z,57.15
2018-03-03T08:46:22.767Z,56.88
2018-03-03T08:48:50.396Z,56.73
2018-03-03T08:51:17.983Z,56.59
2018-03-03T08:53:45.565Z,56.49
2018-03-03T08:56:13.700Z,56.27
2018-03-03T08:58:41.363Z,55.99
2018-03-03T09:01:08.926Z,55.52
2018-03-03T09:03:36.916Z,55.77
2018-03-03T09:06:04.472Z,55.45
2018-03-03T09:08:32.084Z,55.22
2018-03-03T09:10:59.718Z,54.95
2018-03-03T09:13:27.540Z,54.87
2018-03-03T09:15:55.141Z,54.80
2018-03-03T09:18:22.996Z,53.95
2018-03-03T09:20:50.603Z,53.82
2018-03-03T09:23:18.691Z,53.78
2018-03-03T09:25:46.233Z,53.62
2018-03-03T09:28:13.870Z,53.40
2018-03-03T09:30:41.457Z,53.53
2018-03-03T09:33:09.040Z,53.10
2018-03-03T09:35:36.660Z,52.87
2018-03-03T09:38:04.244Z,52.70
2018-03-03T09:40:31.836Z,52.59
2018-03-03T09:42:59.453Z,52.68
2018-03-03T09:45:27.032Z,52.13
2018-03-03T09:47:55.048Z,52.38
2018-03-03T09:50:22.650Z,51.86
2018-03-03T09:52:50.241Z,51.98
2018-03-03T09:55:17.911Z,51.74
2018-03-03T09:57:45.492Z,51.71
2018-03-03T10:00:13.287Z,51.40
2018-03-03T10:02:40.930Z,51.47
2018-03-03T10:05:08.507Z,51.13
2018-03-03T10:07:36.089Z,51.23
2018-03-03T10:10:03.714Z,50.99
2018-03-03T10:12:31.277Z,50.40
2018-03-03T10:14:58.868Z,50.54
2018-03-03T10:17:26.490Z,50.45
2018-03-03T10:19:54.113Z,50.50
2018-03-03T10:22:22.010Z,50.24
2018-03-03T10:24:49.606Z,49.84
2018-03-03T10:27:17.223Z,49.58
2018-03-03T10:29:44.848Z,49.00
2018-03-03T10:32:12.965Z,48.96
2018-03-03T10:34:40.614Z,48.71
2018-03-03T10:37:08.196Z,47.88
2018-03-03T10:39:35.829Z,47.66
2018-03-03T10:42:03.453Z,47.69
2018-03-03T10:44:31.015Z,47.64
2018-03-03T10:46:58.604Z,47.37
2018-03-03T10:49:26.211Z,46.92
2018-03-03T10:51:53.784Z,46.87
2018-03-03T10:54:21.414Z,46.37
2018-03-03T10:56:49.014Z,46.14
2018-03-03T10:59:16.608Z,45.90
2018-03-03T11:01:44.223Z,45.70
2018-03-03T11:04:11.800Z,45.51
2018-03-03T11:06:39.434Z,45.06
2018-03-03T11:09:07.043Z,44.83
2018-03-03T11:11:34.693Z,44.85
2018-03-03T11:14:02.298Z,43.82
2018-03-03T11:16:29.970Z,43.79
2018-03-03T11:18:57.550Z,44.14
2018-03-03T11:21:25.397Z,43.87
2018-03-03T11:23:53.015Z,43.83
2018-03-03T11:26:20.649Z,44.03
2018-03-03T11:28:48.211Z,43.72
2018-03-03T11:31:15.829Z,43.03
2018-03-03T11:33:43.444Z,43.34
2018-03-03T11:36:11.037Z,43.77
2018-03-03T11:38:38.616Z,43.52
2018-03-03T11:41:06.291Z,42.78
2018-03-03T11:43:33.861Z,43.06
2018-03-03T11:46:01.723Z,42.84
2018-03-03T11:48:29.357Z,42.36
2018-03-03T11:50:56.945Z,41.77
2018-03-03T11:53:24.624Z,42.08
2018-03-03T11:55:52.227Z,41.62
2018-03-03T11:58:19.899Z,42.10
2018-03-03T12:00:47.494Z,42.61
2018-03-03T12:03:15.079Z,42.55
2018-03-03T12:05:42.789Z,42.39
2018-03-03T12:08:10.349Z,42.28
2018-03-03T12:10:37.974Z,41.99
2018-03-03T12:13:05.891Z,42.16
2018-03-03T12:15:33.511Z,41.93
2018-03-03T12:18:01.076Z,41.16
2018-03-03T12:20:28.674Z,41.52
2018-03-03T12:22:56.351Z,42.09
2018-03-03T12:25:23.941Z,41.98
2018-03-03T12:27:51.563Z,40.98
2018-03-03T12:30:19.216Z,40.54
2018-03-03T12:32:46.834Z,40.34
2018-03-03T12:35:14.444Z,41.04
2018-03-03T12:37:42.075Z,40.72
2018-03-03T12:40:09.743Z,40.70
2018-03-03T12:42:37.634Z,40.52
2018-03-03T12:45:05.301Z,39.91
2018-03-03T12:47:32.925Z,40.15
2018-03-03T12:50:00.504Z,39.08
2018-03-03T12:52:28.125Z,39.76
2018-03-03T12:54:55.719Z,39.32
2018-03-03T12:57:23.303Z,39.03
2018-03-03T12:59:50.891Z,39.38
2018-03-03T13:02:18.515Z,39.52
2018-03-03T13:04:46.133Z,39.38
2018-03-03T13:07:13.743Z,39.24
2018-03-03T13:09:41.344Z,38.73
2018-03-03T13:12:08.969Z,38.91
2018-03-03T13:14:36.540Z,39.06
2018-03-03T13:17:04.205Z,39.39
2018-03-03T13:19:31.797Z,38.95
2018-03-03T13:21:59.392Z,39.44
2018-03-03T13:24:26.978Z,39.43
2018-03-03T13:26:54.608Z,39.91
2018-03-03T13:29:22.211Z,40.21
2018-03-03T13:31:49.819Z,39.57
2018-03-03T13:34:17.436Z,39.47
2018-03-03T13:36:45.249Z,39.48
2018-03-03T13:39:12.980Z,39.45
2018-03-03T13:41:40.652Z,39.78
2018-03-03T13:44:08.299Z,39.09
2018-03-03T13:46:35.909Z,39.38
2018-03-03T13:49:03.516Z,38.86
2018-03-03T13:51:31.174Z,39.58
2018-03-03T13:53:58.780Z,39.24
2018-03-03T13:56:26.421Z,38.94
2018-03-03T13:58:54.077Z,38.81
2018-03-03T14:01:21.729Z,39.01
2018-03-03T14:03:49.690Z,39.20
2018-03-03T14:06:17.299Z,39.52
2018-03-03T14:08:44.874Z,39.31
2018-03-03T14:11:12.499Z,39.46
2018-03-03T14:13:40.083Z,39.24
2018-03-03T14:16:07.678Z,39.22
2018-03-03T14:18:35.276Z,38.53
2018-03-03T14:21:02.905Z,38.83
2018-03-03T14:23:30.530Z,38.99
2018-03-03T14:25:58.144Z,38.41
2018-03-03T14:28:25.722Z,38.15
2018-03-03T14:30:53.363Z,38.65
2018-03-03T14:33:20.959Z,38.97
2018-03-03T14:35:48.595Z,39.22
2018-03-03T14:38:16.231Z,39.02
2018-03-03T14:40:43.860Z,39.02
2018-03-03T14:43:11.487Z,39.14
2018-03-03T14:45:39.123Z,39.17
2018-03-03T14:48:06.980Z,39.29
2018-03-03T14:50:35.293Z,39.19
2018-03-03T14:53:02.919Z,39.60
2018-03-03T14:55:30.784Z,39.91
2018-03-03T14:57:58.370Z,40.19
2018-03-03T15:00:25.998Z,40.43
2018-03-03T15:02:53.583Z,40.41
2018-03-03T15:05:21.177Z,40.15
2018-03-03T15:07:48.804Z,40.36
2018-03-03T15:10:16.392Z,40.63
2018-03-03T15:12:44.021Z,41.04
2018-03-03T15:15:11.614Z,41.18
2018-03-03T15:17:39.225Z,41.34
2018-03-03T15:20:06.953Z,41.69
2018-03-03T15:22:34.560Z,41.89
2018-03-03T15:25:02.169Z,42.17
2018-03-03T15:27:29.784Z,42.36
2018-03-03T15:29:57.355Z,42.78
2018-03-03T15:32:27.988Z,42.99
2018-03-03T15:34:55.589Z,43.05
2018-03-03T15:37:23.226Z,43.06
2018-03-03T15:39:50.788Z,43.63
2018-03-03T15:42:18.353Z,43.69
2018-03-03T15:44:45.986Z,43.78
2018-03-03T15:47:13.802Z,43.88
2018-03-03T15:49:41.436Z,44.20
2018-03-03T15:52:09.065Z,44.53
2018-03-03T15:54:36.637Z,44.40
2018-03-03T15:57:04.222Z,44.51
2018-03-03T15:59:31.889Z,44.75
2018-03-03T16:01:59.482Z,44.74
2018-03-03T16:04:27.066Z,44.53
2018-03-03T16:06:54.681Z,44.54
2018-03-03T16:09:22.362Z,44.87
2018-03-03T16:11:49.976Z,44.92
2018-03-03T16:14:17.544Z,45.25
2018-03-03T16:16:45.182Z,45.44
2018-03-03T16:19:12.801Z,45.52
2018-03-03T16:21:40.391Z,45.70
2018-03-03T16:24:08.024Z,45.78
2018-03-03T16:26:35.820Z,46.07
2018-03-03T16:29:03.415Z,46.22
2018-03-03T16:31:34.381Z,46.44
2018-03-03T16:34:02.182Z,46.32
2018-03-03T16:36:29.756Z,46.38
2018-03-03T16:38:57.374Z,46.34
2018-03-03T16:41:24.976Z,46.74
2018-03-03T16:43:52.540Z,46.74
2018-03-03T16:46:20.123Z,46.91
2018-03-03T16:48:47.775Z,46.97
2018-03-03T16:51:15.725Z,47.32
2018-03-03T16:53:43.592Z,47.33
2018-03-03T16:56:11.218Z,47.48
2018-03-03T16:58:38.839Z,47.22
2018-03-03T17:01:06.392Z,47.28
2018-03-03T17:03:33.984Z,47.44
2018-03-03T17:06:01.540Z,47.77
2018-03-03T17:08:29.196Z,47.63
2018-03-03T17:10:56.780Z,47.86
2018-03-03T17:13:24.424Z,48.15
2018-03-03T17:15:52.017Z,48.17
2018-03-03T17:18:19.656Z,48.32
2018-03-03T17:20:47.481Z,48.20
2018-03-03T17:23:15.053Z,48.32
2018-03-03T17:25:42.683Z,48.38
2018-03-03T17:28:10.310Z,48.49
2018-03-03T17:30:37.866Z,48.60
2018-03-03T17:33:05.437Z,48.52
2018-03-03T17:35:33.039Z,48.67
2018-03-03T17:38:00.673Z,48.78
2018-03-03T17:40:28.259Z,48.89
2018-03-03T17:42:55.837Z,48.83
2018-03-03T17:45:23.425Z,48.94
2018-03-03T17:47:51.037Z,49.04
2018-03-03T17:50:18.683Z,49.23
2018-03-03T17:52:46.313Z,49.34
2018-03-03T17:55:14.166Z,49.44
2018-03-03T17:57:41.799Z,49.54
2018-03-03T18:00:09.397Z,49.65
2018-03-03T18:02:37.048Z,49.70
2018-03-03T18:05:05.094Z,49.57
2018-03-03T18:07:32.681Z,49.82
2018-03-03T18:10:00.314Z,49.77
2018-03-03T18:12:27.942Z,49.64
2018-03-03T18:14:55.510Z,49.70
2018-03-03T18:17:23.081Z,49.42
2018-03-03T18:19:50.719Z,49.54
2018-03-03T18:22:18.306Z,49.52
2018-03-03T18:24:45.897Z,49.70
2018-03-03T18:27:13.482Z,49.65
2018-03-03T18:29:41.398Z,49.58
2018-03-03T18:32:09.047Z,49.68
2018-03-03T18:34:36.933Z,49.54
2018-03-03T18:37:04.512Z,49.38
2018-03-03T18:39:32.126Z,49.33
2018-03-03T18:41:59.754Z,49.47
2018-03-03T18:44:27.365Z,49.59
2018-03-03T18:46:54.980Z,49.37
2018-03-03T18:49:22.576Z,49.42
2018-03-03T18:51:50.227Z,49.76
2018-03-03T18:54:17.826Z,49.55
2018-03-03T18:56:45.417Z,49.68
2018-03-03T18:59:13.054Z,49.74
2018-03-03T19:01:40.689Z,49.69
2018-03-03T19:04:08.307Z,49.59
2018-03-03T19:06:35.916Z,49.73
2018-03-03T19:09:03.591Z,49.57
2018-03-03T19:11:31.222Z,49.44
2018-03-03T19:13:58.840Z,49.39
2018-03-03T19:16:26.420Z,49.56
2018-03-03T19:18:54.060Z,49.69
2018-03-03T19:21:21.651Z,49.70
2018-03-03T19:23:49.252Z,49.94
2018-03-03T19:26:16.912Z,49.96
2018-03-03T19:28:44.510Z,50.07
2018-03-03T19:31:12.083Z,50.08
2018-03-03T19:33:39.727Z,50.15
2018-03-03T19:36:07.338Z,50.15
2018-03-03T19:38:34.928Z,50.19
2018-03-03T19:41:02.645Z,50.24
2018-03-03T19:43:30.236Z,50.15
2018-03-03T19:45:57.817Z,49.79
2018-03-03T19:48:25.491Z,49.94
2018-03-03T19:50:53.054Z,49.86
2018-03-03T19:53:20.639Z,49.66
2018-03-03T19:55:48.558Z,49.75
2018-03-03T19:58:16.429Z,49.61
2018-03-03T20:00:43.997Z,49.35
2018-03-03T20:03:11.688Z,49.57
2018-03-03T20:05:39.269Z,49.45
2018-03-03T20:08:06.830Z,49.39
2018-03-03T20:10:34.428Z,49.02
2018-03-03T20:13:02.013Z,49.13
2018-03-03T20:15:29.776Z,48.89
2018-03-03T20:17:57.385Z,49.05
2018-03-03T20:20:24.945Z,49.07
2018-03-03T20:22:52.555Z,49.17
2018-03-03T20:25:20.390Z,49.40
2018-03-03T20:27:47.970Z,49.56
2018-03-03T20:30:15.593Z,49.56
2018-03-03T20:32:43.232Z,49.60
2018-03-03T20:35:11.159Z,49.56
2018-03-03T20:37:38.874Z,49.89
2018-03-03T20:40:06.501Z,49.89
2018-03-03T20:42:34.165Z,50.06
2018-03-03T20:45:01.782Z,50.31
2018-03-03T20:47:29.387Z,50.43
2018-03-03T20:49:56.953Z,50.27
2018-03-03T20:52:24.597Z,50.25
2018-03-03T20:54:52.197Z,50.37
2018-03-03T20:57:19.772Z,50.79
2018-03-03T20:59:47.413Z,50.81
2018-03-03T21:02:14.985Z,51.20
2018-03-03T21:04:42.661Z,51.39
2018-03-03T21:07:10.312Z,51.38
2018-03-03T21:09:37.951Z,51.73
2018-03-03T21:12:06.118Z,51.87
2018-03-03T21:14:33.674Z,52.10
2018-03-03T21:17:01.225Z,52.53
2018-03-03T21:19:28.856Z,52.37
2018-03-03T21:21:56.503Z,52.58
2018-03-03T21:24:24.066Z,52.65
2018-03-03T21:26:51.701Z,52.80
2018-03-03T21:29:19.341Z,52.81
2018-03-03T21:31:47.125Z,52.98
2018-03-03T21:34:14.778Z,52.73
2018-03-03T21:36:44.199Z,52.78
2018-03-03T21:39:11.784Z,52.69
2018-03-03T21:41:39.533Z,53.03
2018-03-03T21:44:07.388Z,53.08
2018-03-03T21:46:35.479Z,53.70
2018-03-03T21:49:03.267Z,54.09
2018-03-03T21:51:30.966Z,54.65
2018-03-03T21:53:58.612Z,54.95
2018-03-03T21:56:26.193Z,54.92
2018-03-03T21:58:53.805Z,55.98
2018-03-03T22:01:21.690Z,55.91
2018-03-03T22:03:49.756Z,55.93
2018-03-03T22:06:17.439Z,56.13
2018-03-03T22:08:45.438Z,56.49
2018-03-03T22:11:13.031Z,56.49
2018-03-03T22:13:40.866Z,56.86
2018-03-03T22:16:08.462Z,58.32
2018-03-03T22:18:36.077Z,58.92
2018-03-03T22:21:04.013Z,59.80
2018-03-03T22:23:31.817Z,60.63
2018-03-03T22:25:59.486Z,60.20
2018-03-03T22:28:27.114Z,62.00
2018-03-03T22:30:54.790Z,61.58
2018-03-03T22:33:22.490Z,62.32
2018-03-03T22:35:50.219Z,63.81
2018-03-03T22:38:17.789Z,63.65
2018-03-03T22:40:45.358Z,64.05
2018-03-03T22:43:13.257Z,64.19
2018-03-03T22:45:40.876Z,64.74
2018-03-03T22:48:08.511Z,64.55
2018-03-03T22:50:36.097Z,64.74
2018-03-03T22:53:03.732Z,64.37
2018-03-03T22:55:31.395Z,64.64
2018-03-03T22:57:59.050Z,64.69
2018-03-03T23:00:26.835Z,64.47
2018-03-03T23:02:54.428Z,64.47
2018-03-03T23:05:22.255Z,64.15
2018-03-03T23:07:51.245Z,64.18
2018-03-03T23:10:18.884Z,64.08
2018-03-03T23:12:46.450Z,63.76
2018-03-03T23:15:14.096Z,63.97
2018-03-03T23:17:41.770Z,63.91
2018-03-03T23:20:09.455Z,63.82
2018-03-03T23:22:37.153Z,64.02
2018-03-03T23:25:04.740Z,63.79
2018-03-03T23:27:32.340Z,63.79
2018-03-03T23:29:59.972Z,63.80
2018-03-03T23:32:27.589Z,63.72
2018-03-03T23:34:55.461Z,63.51
2018-03-03T23:37:23.121Z,63.42
2018-03-03T23:39:50.703Z,63.26
2018-03-03T23:42:18.299Z,63.11
2018-03-03T23:44:45.996Z,62.79
2018-03-03T23:47:13.624Z,62.54
2018-03-03T23:49:41.221Z,62.08
2018-03-03T23:52:08.853Z,61.79
2018-03-03T23:54:36.449Z,61.60
2018-03-03T23:57:04.094Z,61.85
2018-03-03T23:59:32.049Z,61.47
